sensor_id;sensor_type;location;lat;lon;timestamp;pressure;altitude;pressure_sealevel;temperature;humidity
4981;BME280;2507;50.392;7.482;2023-06-19T00:00:53;100116.00;;;24.02;52.96
4981;BME280;2507;50.392;7.482;2023-06-19T00:03:18;100101.75;;;23.95;53.16
4981;BME280;2507;50.392;7.482;2023-06-19T00:05:44;100090.19;;;23.88;53.01
4981;BME280;2507;50.392;7.482;2023-06-19T00:08:09;100101.97;;;23.87;53.06
4981;BME280;2507;50.392;7.482;2023-06-19T00:10:34;100110.81;;;23.87;53.10
4981;BME280;2507;50.392;7.482;2023-06-19T00:13:00;100136.00;;;24.06;52.61
4981;BME280;2507;50.392;7.482;2023-06-19T00:15:25;100124.03;;;24.02;52.43
4981;BME280;2507;50.392;7.482;2023-06-19T00:17:50;100130.84;;;24.11;52.47
4981;BME280;2507;50.392;7.482;2023-06-19T00:20:16;100117.84;;;24.21;51.83
4981;BME280;2507;50.392;7.482;2023-06-19T00:22:43;100136.66;;;24.14;52.14
4981;BME280;2507;50.392;7.482;2023-06-19T00:25:08;100129.41;;;24.15;51.86
4981;BME280;2507;50.392;7.482;2023-06-19T00:27:33;100130.66;;;24.12;52.31
4981;BME280;2507;50.392;7.482;2023-06-19T00:29:59;100128.56;;;24.27;51.74
4981;BME280;2507;50.392;7.482;2023-06-19T00:32:28;100137.84;;;23.99;53.46
4981;BME280;2507;50.392;7.482;2023-06-19T00:34:53;100114.94;;;23.57;54.60
4981;BME280;2507;50.392;7.482;2023-06-19T00:37:19;100128.50;;;23.49;55.21
4981;BME280;2507;50.392;7.482;2023-06-19T00:39:44;100131.59;;;23.46;55.13
4981;BME280;2507;50.392;7.482;2023-06-19T00:42:10;100131.84;;;23.64;54.46
4981;BME280;2507;50.392;7.482;2023-06-19T00:44:35;100130.00;;;23.78;54.20
4981;BME280;2507;50.392;7.482;2023-06-19T00:47:02;100140.94;;;23.83;54.20
4981;BME280;2507;50.392;7.482;2023-06-19T00:49:29;100135.78;;;23.88;54.18
4981;BME280;2507;50.392;7.482;2023-06-19T00:51:55;100131.25;;;23.88;54.18
4981;BME280;2507;50.392;7.482;2023-06-19T00:54:21;100138.25;;;23.89;54.20
4981;BME280;2507;50.392;7.482;2023-06-19T00:56:47;100138.66;;;23.67;54.86
4981;BME280;2507;50.392;7.482;2023-06-19T00:59:18;100154.28;;;23.44;55.83
4981;BME280;2507;50.392;7.482;2023-06-19T01:01:44;100141.06;;;23.29;56.75
4981;BME280;2507;50.392;7.482;2023-06-19T01:04:10;100140.84;;;23.31;57.08
4981;BME280;2507;50.392;7.482;2023-06-19T01:06:54;100136.28;;;23.31;57.22
4981;BME280;2507;50.392;7.482;2023-06-19T01:09:26;100144.16;;;23.39;56.69
4981;BME280;2507;50.392;7.482;2023-06-19T01:11:57;100154.03;;;23.32;57.03
4981;BME280;2507;50.392;7.482;2023-06-19T01:14:26;100158.56;;;23.32;57.25
4981;BME280;2507;50.392;7.482;2023-06-19T01:16:54;100163.94;;;23.38;56.42
4981;BME280;2507;50.392;7.482;2023-06-19T01:19:20;100182.94;;;23.50;56.25
4981;BME280;2507;50.392;7.482;2023-06-19T01:21:47;100162.75;;;23.47;56.30
4981;BME280;2507;50.392;7.482;2023-06-19T01:24:13;100161.31;;;23.58;55.94
4981;BME280;2507;50.392;7.482;2023-06-19T01:26:39;100175.13;;;23.61;55.80
4981;BME280;2507;50.392;7.482;2023-06-19T01:29:05;100156.97;;;23.50;56.35
4981;BME280;2507;50.392;7.482;2023-06-19T01:31:38;100159.03;;;23.55;56.41
4981;BME280;2507;50.392;7.482;2023-06-19T01:34:07;100156.78;;;23.65;56.53
4981;BME280;2507;50.392;7.482;2023-06-19T01:36:35;100164.03;;;23.71;56.01
4981;BME280;2507;50.392;7.482;2023-06-19T01:39:01;100164.44;;;23.74;56.29
4981;BME280;2507;50.392;7.482;2023-06-19T01:41:28;100175.16;;;23.81;56.30
4981;BME280;2507;50.392;7.482;2023-06-19T01:43:55;100167.94;;;23.88;55.95
4981;BME280;2507;50.392;7.482;2023-06-19T01:46:22;100167.09;;;23.87;55.79
4981;BME280;2507;50.392;7.482;2023-06-19T01:48:47;100183.22;;;23.94;55.65
4981;BME280;2507;50.392;7.482;2023-06-19T01:51:13;100170.44;;;23.96;55.55
4981;BME280;2507;50.392;7.482;2023-06-19T01:53:38;100172.50;;;23.94;56.08
4981;BME280;2507;50.392;7.482;2023-06-19T01:56:04;100191.91;;;23.96;56.03
4981;BME280;2507;50.392;7.482;2023-06-19T01:58:29;100170.69;;;24.01;56.13
4981;BME280;2507;50.392;7.482;2023-06-19T02:00:55;100177.28;;;24.05;55.76
4981;BME280;2507;50.392;7.482;2023-06-19T02:03:20;100190.03;;;23.96;55.54
4981;BME280;2507;50.392;7.482;2023-06-19T02:05:46;100180.53;;;23.94;55.21
4981;BME280;2507;50.392;7.482;2023-06-19T02:08:11;100183.84;;;23.96;55.18
4981;BME280;2507;50.392;7.482;2023-06-19T02:10:36;100173.75;;;23.98;55.65
4981;BME280;2507;50.392;7.482;2023-06-19T02:13:02;100181.34;;;23.88;56.30
4981;BME280;2507;50.392;7.482;2023-06-19T02:15:27;100181.75;;;23.91;55.89
4981;BME280;2507;50.392;7.482;2023-06-19T02:17:55;100174.97;;;23.95;56.03
4981;BME280;2507;50.392;7.482;2023-06-19T02:20:22;100187.38;;;24.03;56.08
4981;BME280;2507;50.392;7.482;2023-06-19T02:22:47;100183.25;;;24.00;56.23
4981;BME280;2507;50.392;7.482;2023-06-19T02:25:12;100185.28;;;23.98;56.45
4981;BME280;2507;50.392;7.482;2023-06-19T02:27:38;100198.69;;;23.98;56.38
4981;BME280;2507;50.392;7.482;2023-06-19T02:30:04;100194.97;;;23.93;56.31
4981;BME280;2507;50.392;7.482;2023-06-19T02:32:30;100204.03;;;23.92;55.96
4981;BME280;2507;50.392;7.482;2023-06-19T02:34:55;100194.97;;;23.86;55.54
4981;BME280;2507;50.392;7.482;2023-06-19T02:37:21;100195.78;;;23.74;56.19
4981;BME280;2507;50.392;7.482;2023-06-19T02:39:46;100201.88;;;23.55;56.94
4981;BME280;2507;50.392;7.482;2023-06-19T02:42:11;100200.69;;;23.57;56.67
4981;BME280;2507;50.392;7.482;2023-06-19T02:44:37;100197.78;;;23.59;56.11
4981;BME280;2507;50.392;7.482;2023-06-19T02:47:02;100211.34;;;23.38;58.15
4981;BME280;2507;50.392;7.482;2023-06-19T02:49:27;100216.84;;;23.29;58.41
4981;BME280;2507;50.392;7.482;2023-06-19T02:51:53;100220.59;;;23.01;59.12
4981;BME280;2507;50.392;7.482;2023-06-19T02:54:18;100227.13;;;22.85;59.92
4981;BME280;2507;50.392;7.482;2023-06-19T02:56:43;100226.97;;;22.66;60.18
4981;BME280;2507;50.392;7.482;2023-06-19T02:59:08;100213.97;;;22.90;59.98
4981;BME280;2507;50.392;7.482;2023-06-19T03:01:34;100216.47;;;22.98;60.04
4981;BME280;2507;50.392;7.482;2023-06-19T03:03:59;100231.22;;;22.88;60.28
4981;BME280;2507;50.392;7.482;2023-06-19T03:06:25;100226.97;;;22.66;60.74
4981;BME280;2507;50.392;7.482;2023-06-19T03:08:51;100237.31;;;22.69;61.03
4981;BME280;2507;50.392;7.482;2023-06-19T03:11:16;100241.16;;;22.94;59.41
4981;BME280;2507;50.392;7.482;2023-06-19T03:16:12;100250.03;;;22.46;60.60
4981;BME280;2507;50.392;7.482;2023-06-19T03:18:37;100262.28;;;22.33;61.40
4981;BME280;2507;50.392;7.482;2023-06-19T03:21:02;100255.88;;;22.28;61.79
4981;BME280;2507;50.392;7.482;2023-06-19T03:23:28;100265.47;;;22.44;61.03
4981;BME280;2507;50.392;7.482;2023-06-19T03:25:53;100267.16;;;22.51;61.34
4981;BME280;2507;50.392;7.482;2023-06-19T03:28:18;100269.47;;;22.54;60.69
4981;BME280;2507;50.392;7.482;2023-06-19T03:30:44;100265.91;;;22.47;60.69
4981;BME280;2507;50.392;7.482;2023-06-19T03:33:09;100277.56;;;22.61;59.98
4981;BME280;2507;50.392;7.482;2023-06-19T03:35:34;100263.97;;;22.83;59.37
4981;BME280;2507;50.392;7.482;2023-06-19T03:38:00;100275.22;;;22.79;59.40
4981;BME280;2507;50.392;7.482;2023-06-19T03:40:25;100278.16;;;22.84;59.17
4981;BME280;2507;50.392;7.482;2023-06-19T03:42:50;100281.34;;;23.00;58.21
4981;BME280;2507;50.392;7.482;2023-06-19T03:45:16;100276.41;;;23.04;58.63
4981;BME280;2507;50.392;7.482;2023-06-19T03:47:41;100285.28;;;23.04;58.43
4981;BME280;2507;50.392;7.482;2023-06-19T03:50:07;100278.25;;;22.97;59.04
4981;BME280;2507;50.392;7.482;2023-06-19T03:52:35;100281.63;;;23.12;58.16
4981;BME280;2507;50.392;7.482;2023-06-19T03:55:02;100281.50;;;23.26;57.97
4981;BME280;2507;50.392;7.482;2023-06-19T03:57:27;100296.44;;;23.36;57.64
4981;BME280;2507;50.392;7.482;2023-06-19T03:59:53;100297.78;;;23.25;58.10
4981;BME280;2507;50.392;7.482;2023-06-19T04:02:19;100300.25;;;23.26;58.30
4981;BME280;2507;50.392;7.482;2023-06-19T04:04:44;100304.72;;;23.47;57.76
4981;BME280;2507;50.392;7.482;2023-06-19T04:07:09;100303.69;;;23.42;58.02
4981;BME280;2507;50.392;7.482;2023-06-19T04:09:35;100300.88;;;23.56;57.86
4981;BME280;2507;50.392;7.482;2023-06-19T04:12:00;100300.59;;;23.45;58.63
4981;BME280;2507;50.392;7.482;2023-06-19T04:14:25;100302.63;;;23.43;58.67
4981;BME280;2507;50.392;7.482;2023-06-19T04:16:51;100300.03;;;23.56;58.80
4981;BME280;2507;50.392;7.482;2023-06-19T04:19:16;100312.22;;;23.65;58.55
4981;BME280;2507;50.392;7.482;2023-06-19T04:21:41;100314.56;;;23.81;58.42
4981;BME280;2507;50.392;7.482;2023-06-19T04:24:06;100313.81;;;24.00;57.57
4981;BME280;2507;50.392;7.482;2023-06-19T04:26:34;100321.75;;;24.34;56.98
4981;BME280;2507;50.392;7.482;2023-06-19T04:29:00;100335.78;;;24.62;56.42
4981;BME280;2507;50.392;7.482;2023-06-19T04:31:26;100326.13;;;24.81;55.90
4981;BME280;2507;50.392;7.482;2023-06-19T04:33:51;100319.91;;;24.61;56.47
4981;BME280;2507;50.392;7.482;2023-06-19T04:36:17;100324.44;;;24.54;56.72
4981;BME280;2507;50.392;7.482;2023-06-19T04:38:44;100323.00;;;24.45;57.20
4981;BME280;2507;50.392;7.482;2023-06-19T04:41:10;100322.56;;;24.21;57.59
4981;BME280;2507;50.392;7.482;2023-06-19T04:43:35;100313.75;;;23.93;58.66
4981;BME280;2507;50.392;7.482;2023-06-19T04:46:00;100326.66;;;24.24;58.12
4981;BME280;2507;50.392;7.482;2023-06-19T04:48:28;100329.13;;;24.19;58.15
4981;BME280;2507;50.392;7.482;2023-06-19T04:50:55;100336.69;;;23.96;58.64
4981;BME280;2507;50.392;7.482;2023-06-19T04:53:21;100338.59;;;24.08;58.82
4981;BME280;2507;50.392;7.482;2023-06-19T04:55:46;100333.56;;;23.92;59.53
4981;BME280;2507;50.392;7.482;2023-06-19T04:58:12;100341.63;;;23.99;59.22
4981;BME280;2507;50.392;7.482;2023-06-19T05:00:37;100347.19;;;23.91;59.88
4981;BME280;2507;50.392;7.482;2023-06-19T05:03:02;100344.63;;;24.23;59.19
4981;BME280;2507;50.392;7.482;2023-06-19T05:05:28;100348.50;;;24.08;59.51
4981;BME280;2507;50.392;7.482;2023-06-19T05:07:53;100346.81;;;24.00;59.94
4981;BME280;2507;50.392;7.482;2023-06-19T05:10:19;100349.16;;;24.29;59.74
4981;BME280;2507;50.392;7.482;2023-06-19T05:12:44;100358.13;;;24.82;57.96
4981;BME280;2507;50.392;7.482;2023-06-19T05:15:10;100350.38;;;25.64;56.30
4981;BME280;2507;50.392;7.482;2023-06-19T05:17:35;100344.22;;;26.08;54.48
4981;BME280;2507;50.392;7.482;2023-06-19T05:20:06;100372.03;;;26.64;53.53
4981;BME280;2507;50.392;7.482;2023-06-19T05:22:33;100372.03;;;26.64;52.85
4981;BME280;2507;50.392;7.482;2023-06-19T05:25:00;100372.22;;;26.38;53.30
4981;BME280;2507;50.392;7.482;2023-06-19T05:27:25;100356.94;;;26.94;52.72
4981;BME280;2507;50.392;7.482;2023-06-19T05:29:50;100378.41;;;27.01;51.88
4981;BME280;2507;50.392;7.482;2023-06-19T05:32:16;100381.72;;;27.46;51.08
4981;BME280;2507;50.392;7.482;2023-06-19T05:34:41;100383.28;;;27.96;50.31
4981;BME280;2507;50.392;7.482;2023-06-19T05:37:06;100375.41;;;29.06;48.48
4981;BME280;2507;50.392;7.482;2023-06-19T05:39:32;100389.22;;;30.14;45.92
4981;BME280;2507;50.392;7.482;2023-06-19T05:41:57;100411.69;;;30.54;44.13
4981;BME280;2507;50.392;7.482;2023-06-19T05:44:22;100398.72;;;30.56;43.87
4981;BME280;2507;50.392;7.482;2023-06-19T05:46:48;100395.59;;;30.64;43.39
4981;BME280;2507;50.392;7.482;2023-06-19T05:49:13;100400.19;;;30.64;43.75
4981;BME280;2507;50.392;7.482;2023-06-19T05:51:38;100405.91;;;31.29;42.59
4981;BME280;2507;50.392;7.482;2023-06-19T05:54:04;100392.13;;;30.52;43.46
4981;BME280;2507;50.392;7.482;2023-06-19T05:56:30;100395.44;;;29.40;45.95
4981;BME280;2507;50.392;7.482;2023-06-19T05:58:57;100395.94;;;28.84;47.75
4981;BME280;2507;50.392;7.482;2023-06-19T06:01:23;100397.50;;;28.92;47.63
4981;BME280;2507;50.392;7.482;2023-06-19T06:03:49;100395.16;;;28.95;47.94
4981;BME280;2507;50.392;7.482;2023-06-19T06:06:14;100378.25;;;29.00;47.63
4981;BME280;2507;50.392;7.482;2023-06-19T06:08:40;100388.81;;;29.82;45.40
4981;BME280;2507;50.392;7.482;2023-06-19T06:11:05;100398.47;;;29.78;46.03
4981;BME280;2507;50.392;7.482;2023-06-19T06:13:30;100413.94;;;30.06;45.73
4981;BME280;2507;50.392;7.482;2023-06-19T06:15:56;100414.19;;;30.04;45.50
4981;BME280;2507;50.392;7.482;2023-06-19T06:18:21;100398.38;;;29.62;45.72
4981;BME280;2507;50.392;7.482;2023-06-19T06:20:47;100407.16;;;28.99;47.21
4981;BME280;2507;50.392;7.482;2023-06-19T06:23:12;100415.91;;;28.72;48.09
4981;BME280;2507;50.392;7.482;2023-06-19T06:25:38;100407.34;;;28.86;47.58
4981;BME280;2507;50.392;7.482;2023-06-19T06:28:03;100406.25;;;29.29;47.24
4981;BME280;2507;50.392;7.482;2023-06-19T06:30:28;100400.63;;;29.76;45.49
4981;BME280;2507;50.392;7.482;2023-06-19T06:32:54;100395.22;;;29.76;45.59
4981;BME280;2507;50.392;7.482;2023-06-19T06:35:19;100392.28;;;30.06;44.70
4981;BME280;2507;50.392;7.482;2023-06-19T06:37:45;100389.44;;;29.50;45.52
4981;BME280;2507;50.392;7.482;2023-06-19T06:40:11;100393.25;;;28.73;46.81
4981;BME280;2507;50.392;7.482;2023-06-19T06:42:37;100389.16;;;28.82;45.65
4981;BME280;2507;50.392;7.482;2023-06-19T06:45:07;100410.38;;;29.31;44.81
4981;BME280;2507;50.392;7.482;2023-06-19T06:47:34;100400.94;;;30.59;42.89
4981;BME280;2507;50.392;7.482;2023-06-19T06:49:59;100413.53;;;31.65;40.20
4981;BME280;2507;50.392;7.482;2023-06-19T06:52:24;100415.38;;;32.46;39.17
4981;BME280;2507;50.392;7.482;2023-06-19T06:54:49;100417.44;;;33.19;37.22
4981;BME280;2507;50.392;7.482;2023-06-19T06:57:15;100418.94;;;33.78;34.69
4981;BME280;2507;50.392;7.482;2023-06-19T06:59:41;100402.91;;;33.40;35.87
4981;BME280;2507;50.392;7.482;2023-06-19T07:02:06;100410.19;;;32.97;35.92
4981;BME280;2507;50.392;7.482;2023-06-19T07:04:31;100420.41;;;32.59;36.67
4981;BME280;2507;50.392;7.482;2023-06-19T07:06:57;100424.59;;;31.80;38.48
4981;BME280;2507;50.392;7.482;2023-06-19T07:09:23;100426.09;;;31.71;38.15
4981;BME280;2507;50.392;7.482;2023-06-19T07:11:48;100434.59;;;31.58;38.47
4981;BME280;2507;50.392;7.482;2023-06-19T07:14:15;100436.19;;;31.92;38.14
4981;BME280;2507;50.392;7.482;2023-06-19T07:16:43;100430.44;;;31.72;37.88
4981;BME280;2507;50.392;7.482;2023-06-19T07:19:09;100430.88;;;30.81;39.74
4981;BME280;2507;50.392;7.482;2023-06-19T07:21:34;100441.28;;;29.93;41.18
4981;BME280;2507;50.392;7.482;2023-06-19T07:23:59;100447.09;;;30.36;40.51
4981;BME280;2507;50.392;7.482;2023-06-19T07:26:25;100435.53;;;30.69;40.41
4981;BME280;2507;50.392;7.482;2023-06-19T07:28:51;100439.34;;;32.27;37.32
4981;BME280;2507;50.392;7.482;2023-06-19T07:31:16;100440.00;;;33.14;34.48
4981;BME280;2507;50.392;7.482;2023-06-19T07:33:41;100441.22;;;32.96;35.64
4981;BME280;2507;50.392;7.482;2023-06-19T07:36:07;100433.19;;;32.85;35.14
4981;BME280;2507;50.392;7.482;2023-06-19T07:38:33;100443.13;;;33.33;34.79
4981;BME280;2507;50.392;7.482;2023-06-19T07:40:58;100438.78;;;32.73;34.25
4981;BME280;2507;50.392;7.482;2023-06-19T07:43:24;100446.97;;;32.52;34.94
4981;BME280;2507;50.392;7.482;2023-06-19T07:45:49;100447.41;;;32.22;34.89
4981;BME280;2507;50.392;7.482;2023-06-19T07:48:15;100446.09;;;31.65;36.08
4981;BME280;2507;50.392;7.482;2023-06-19T07:50:40;100451.88;;;31.52;36.43
4981;BME280;2507;50.392;7.482;2023-06-19T07:53:06;100445.84;;;31.66;36.80
4981;BME280;2507;50.392;7.482;2023-06-19T07:55:32;100433.63;;;32.77;35.42
4981;BME280;2507;50.392;7.482;2023-06-19T07:57:57;100450.97;;;34.08;33.39
4981;BME280;2507;50.392;7.482;2023-06-19T08:00:23;100444.69;;;35.04;31.30
4981;BME280;2507;50.392;7.482;2023-06-19T08:02:49;100456.16;;;35.41;30.71
4981;BME280;2507;50.392;7.482;2023-06-19T08:05:15;100456.97;;;35.37;30.67
4981;BME280;2507;50.392;7.482;2023-06-19T08:07:40;100453.13;;;34.82;31.11
4981;BME280;2507;50.392;7.482;2023-06-19T08:10:06;100444.09;;;34.67;31.30
4981;BME280;2507;50.392;7.482;2023-06-19T08:12:32;100454.19;;;34.61;31.29
4981;BME280;2507;50.392;7.482;2023-06-19T08:14:58;100450.22;;;34.22;31.68
4981;BME280;2507;50.392;7.482;2023-06-19T08:17:23;100456.06;;;33.47;33.10
4981;BME280;2507;50.392;7.482;2023-06-19T08:19:49;100448.72;;;34.61;31.58
4981;BME280;2507;50.392;7.482;2023-06-19T08:22:15;100433.47;;;36.45;29.64
4981;BME280;2507;50.392;7.482;2023-06-19T08:24:40;100440.66;;;38.18;26.83
4981;BME280;2507;50.392;7.482;2023-06-19T08:27:06;100435.00;;;37.62;27.60
4981;BME280;2507;50.392;7.482;2023-06-19T08:29:32;100444.72;;;37.49;28.08
4981;BME280;2507;50.392;7.482;2023-06-19T08:31:57;100440.66;;;36.69;28.23
4981;BME280;2507;50.392;7.482;2023-06-19T08:34:22;100435.91;;;36.46;28.63
4981;BME280;2507;50.392;7.482;2023-06-19T08:36:48;100442.84;;;36.19;28.90
4981;BME280;2507;50.392;7.482;2023-06-19T08:39:13;100443.88;;;35.54;29.89
4981;BME280;2507;50.392;7.482;2023-06-19T08:41:39;100459.66;;;35.77;29.79
4981;BME280;2507;50.392;7.482;2023-06-19T08:44:06;100440.66;;;36.26;29.21
4981;BME280;2507;50.392;7.482;2023-06-19T08:46:33;100443.53;;;36.54;28.59
4981;BME280;2507;50.392;7.482;2023-06-19T08:48:59;100441.13;;;36.86;28.25
4981;BME280;2507;50.392;7.482;2023-06-19T08:51:26;100443.53;;;37.55;27.90
4981;BME280;2507;50.392;7.482;2023-06-19T08:53:56;100451.13;;;36.62;27.99
4981;BME280;2507;50.392;7.482;2023-06-19T08:56:22;100439.72;;;35.76;28.76
4981;BME280;2507;50.392;7.482;2023-06-19T08:58:47;100438.69;;;36.41;28.52
4981;BME280;2507;50.392;7.482;2023-06-19T09:01:21;100437.59;;;36.32;28.33
4981;BME280;2507;50.392;7.482;2023-06-19T09:03:52;100453.44;;;36.40;28.36
4981;BME280;2507;50.392;7.482;2023-06-19T09:06:18;100441.75;;;36.25;28.46
4981;BME280;2507;50.392;7.482;2023-06-19T09:08:43;100440.91;;;36.24;28.81
4981;BME280;2507;50.392;7.482;2023-06-19T09:11:10;100433.88;;;36.08;28.35
4981;BME280;2507;50.392;7.482;2023-06-19T09:13:36;100442.78;;;35.50;29.58
4981;BME280;2507;50.392;7.482;2023-06-19T09:16:03;100431.59;;;35.01;30.30
4981;BME280;2507;50.392;7.482;2023-06-19T09:18:48;100429.94;;;34.85;30.53
4981;BME280;2507;50.392;7.482;2023-06-19T09:21:17;100428.78;;;34.46;30.22
4981;BME280;2507;50.392;7.482;2023-06-19T09:23:43;100428.34;;;33.55;31.86
4981;BME280;2507;50.392;7.482;2023-06-19T09:26:09;100425.00;;;33.12;32.74
4981;BME280;2507;50.392;7.482;2023-06-19T09:28:40;100428.88;;;32.41;33.22
4981;BME280;2507;50.392;7.482;2023-06-19T09:31:07;100420.25;;;32.70;33.74
4981;BME280;2507;50.392;7.482;2023-06-19T09:33:34;100417.03;;;32.73;33.76
4981;BME280;2507;50.392;7.482;2023-06-19T09:36:01;100432.81;;;32.50;34.00
4981;BME280;2507;50.392;7.482;2023-06-19T09:38:29;100432.59;;;32.08;34.50
4981;BME280;2507;50.392;7.482;2023-06-19T09:40:57;100425.81;;;32.32;33.78
4981;BME280;2507;50.392;7.482;2023-06-19T09:43:44;100441.38;;;32.58;33.62
4981;BME280;2507;50.392;7.482;2023-06-19T09:46:12;100439.28;;;32.22;33.75
4981;BME280;2507;50.392;7.482;2023-06-19T09:48:42;100433.81;;;31.79;33.91
4981;BME280;2507;50.392;7.482;2023-06-19T09:53:34;100436.88;;;30.83;35.21
4981;BME280;2507;50.392;7.482;2023-06-19T09:55:59;100426.91;;;30.72;35.18
4981;BME280;2507;50.392;7.482;2023-06-19T09:58:26;100440.19;;;30.73;36.65
4981;BME280;2507;50.392;7.482;2023-06-19T10:00:53;100438.06;;;31.20;35.83
4981;BME280;2507;50.392;7.482;2023-06-19T10:03:18;100430.75;;;30.87;35.75
4981;BME280;2507;50.392;7.482;2023-06-19T10:05:44;100428.50;;;30.84;35.75
4981;BME280;2507;50.392;7.482;2023-06-19T10:08:09;100424.09;;;30.67;35.74
4981;BME280;2507;50.392;7.482;2023-06-19T10:10:35;100427.44;;;30.57;35.41
4981;BME280;2507;50.392;7.482;2023-06-19T10:13:12;100430.06;;;30.52;36.73
4981;BME280;2507;50.392;7.482;2023-06-19T10:15:41;100432.31;;;31.00;36.68
4981;BME280;2507;50.392;7.482;2023-06-19T10:18:16;100426.66;;;31.18;36.03
4981;BME280;2507;50.392;7.482;2023-06-19T10:20:45;100430.66;;;31.16;36.42
4981;BME280;2507;50.392;7.482;2023-06-19T10:25:43;100427.03;;;31.10;35.77
4981;BME280;2507;50.392;7.482;2023-06-19T10:30:43;100419.75;;;31.10;36.00
4981;BME280;2507;50.392;7.482;2023-06-19T10:33:08;100427.88;;;31.10;35.46
4981;BME280;2507;50.392;7.482;2023-06-19T10:35:41;100417.69;;;31.01;35.78
4981;BME280;2507;50.392;7.482;2023-06-19T10:38:07;100415.09;;;31.28;35.68
4981;BME280;2507;50.392;7.482;2023-06-19T10:40:34;100418.47;;;31.51;35.45
4981;BME280;2507;50.392;7.482;2023-06-19T10:43:00;100412.56;;;31.54;35.80
4981;BME280;2507;50.392;7.482;2023-06-19T10:45:25;100403.78;;;32.07;34.33
4981;BME280;2507;50.392;7.482;2023-06-19T10:47:54;100408.66;;;31.67;33.32
4981;BME280;2507;50.392;7.482;2023-06-19T10:50:19;100406.44;;;31.64;33.55
4981;BME280;2507;50.392;7.482;2023-06-19T10:52:45;100406.53;;;31.69;32.05
4981;BME280;2507;50.392;7.482;2023-06-19T10:55:12;100411.81;;;31.26;33.64
4981;BME280;2507;50.392;7.482;2023-06-19T10:57:38;100410.78;;;31.43;34.74
4981;BME280;2507;50.392;7.482;2023-06-19T11:00:05;100414.38;;;31.16;33.94
4981;BME280;2507;50.392;7.482;2023-06-19T11:02:39;100401.22;;;31.24;34.43
4981;BME280;2507;50.392;7.482;2023-06-19T11:05:06;100399.16;;;31.48;34.00
4981;BME280;2507;50.392;7.482;2023-06-19T11:07:32;100391.75;;;31.81;33.56
4981;BME280;2507;50.392;7.482;2023-06-19T11:09:57;100405.75;;;31.90;33.22
4981;BME280;2507;50.392;7.482;2023-06-19T11:12:23;100391.91;;;31.91;32.68
4981;BME280;2507;50.392;7.482;2023-06-19T11:14:48;100392.91;;;31.85;31.79
4981;BME280;2507;50.392;7.482;2023-06-19T11:17:14;100399.09;;;31.43;32.75
4981;BME280;2507;50.392;7.482;2023-06-19T11:19:40;100403.22;;;30.95;33.64
4981;BME280;2507;50.392;7.482;2023-06-19T11:22:07;100394.56;;;31.32;34.10
4981;BME280;2507;50.392;7.482;2023-06-19T11:24:33;100390.41;;;31.84;33.56
4981;BME280;2507;50.392;7.482;2023-06-19T11:26:58;100391.25;;;32.06;32.67
4981;BME280;2507;50.392;7.482;2023-06-19T11:29:30;100378.25;;;31.86;31.93
4981;BME280;2507;50.392;7.482;2023-06-19T11:32:13;100380.63;;;31.61;32.19
4981;BME280;2507;50.392;7.482;2023-06-19T11:34:39;100389.13;;;31.32;32.62
4981;BME280;2507;50.392;7.482;2023-06-19T11:37:17;100378.22;;;31.65;33.34
4981;BME280;2507;50.392;7.482;2023-06-19T11:39:44;100378.59;;;31.90;32.52
4981;BME280;2507;50.392;7.482;2023-06-19T11:42:09;100371.13;;;32.02;32.80
4981;BME280;2507;50.392;7.482;2023-06-19T11:44:35;100387.53;;;32.12;33.20
4981;BME280;2507;50.392;7.482;2023-06-19T11:47:00;100378.94;;;32.20;33.40
4981;BME280;2507;50.392;7.482;2023-06-19T11:49:27;100372.53;;;32.31;33.34
4981;BME280;2507;50.392;7.482;2023-06-19T11:51:57;100363.09;;;32.39;33.00
4981;BME280;2507;50.392;7.482;2023-06-19T11:54:22;100361.19;;;32.66;31.90
4981;BME280;2507;50.392;7.482;2023-06-19T11:56:48;100363.06;;;32.60;31.99
4981;BME280;2507;50.392;7.482;2023-06-19T11:59:13;100356.16;;;31.99;32.99
4981;BME280;2507;50.392;7.482;2023-06-19T12:01:39;100363.78;;;31.81;33.67
4981;BME280;2507;50.392;7.482;2023-06-19T12:04:04;100371.41;;;32.27;31.64
4981;BME280;2507;50.392;7.482;2023-06-19T12:06:30;100370.94;;;32.35;31.41
4981;BME280;2507;50.392;7.482;2023-06-19T12:08:56;100367.00;;;32.48;31.06
4981;BME280;2507;50.392;7.482;2023-06-19T12:11:21;100374.59;;;32.72;31.52
4981;BME280;2507;50.392;7.482;2023-06-19T12:13:46;100373.63;;;32.57;31.81
4981;BME280;2507;50.392;7.482;2023-06-19T12:16:13;100380.59;;;32.74;32.09
4981;BME280;2507;50.392;7.482;2023-06-19T12:18:38;100371.56;;;32.95;32.00
4981;BME280;2507;50.392;7.482;2023-06-19T12:21:03;100374.00;;;32.65;33.00
4981;BME280;2507;50.392;7.482;2023-06-19T12:23:29;100375.31;;;32.63;32.17
4981;BME280;2507;50.392;7.482;2023-06-19T12:25:55;100366.03;;;32.90;32.30
4981;BME280;2507;50.392;7.482;2023-06-19T12:28:20;100368.50;;;33.24;32.22
4981;BME280;2507;50.392;7.482;2023-06-19T12:30:46;100367.03;;;33.48;31.49
4981;BME280;2507;50.392;7.482;2023-06-19T12:33:13;100369.69;;;33.43;32.07
4981;BME280;2507;50.392;7.482;2023-06-19T12:35:40;100369.78;;;33.53;31.71
4981;BME280;2507;50.392;7.482;2023-06-19T12:38:06;100373.03;;;33.50;31.73
4981;BME280;2507;50.392;7.482;2023-06-19T12:40:32;100367.75;;;33.85;31.19
4981;BME280;2507;50.392;7.482;2023-06-19T12:42:57;100371.78;;;33.72;30.46
4981;BME280;2507;50.392;7.482;2023-06-19T12:45:22;100370.41;;;33.75;30.89
4981;BME280;2507;50.392;7.482;2023-06-19T12:47:48;100379.16;;;33.77;30.88
4981;BME280;2507;50.392;7.482;2023-06-19T12:50:13;100361.84;;;34.03;31.01
4981;BME280;2507;50.392;7.482;2023-06-19T12:52:38;100364.59;;;34.08;30.43
4981;BME280;2507;50.392;7.482;2023-06-19T12:55:04;100366.59;;;34.48;30.13
4981;BME280;2507;50.392;7.482;2023-06-19T12:57:29;100368.53;;;34.47;30.23
4981;BME280;2507;50.392;7.482;2023-06-19T12:59:54;100360.56;;;34.26;29.61
4981;BME280;2507;50.392;7.482;2023-06-19T13:02:20;100346.09;;;34.40;29.77
4981;BME280;2507;50.392;7.482;2023-06-19T13:04:45;100348.34;;;34.83;29.13
4981;BME280;2507;50.392;7.482;2023-06-19T13:07:10;100352.69;;;34.44;29.54
4981;BME280;2507;50.392;7.482;2023-06-19T13:09:35;100355.09;;;34.31;30.04
4981;BME280;2507;50.392;7.482;2023-06-19T13:12:02;100339.28;;;34.23;29.61
4981;BME280;2507;50.392;7.482;2023-06-19T13:14:27;100340.88;;;34.14;29.45